sensor_id;sensor_type;location;lat;lon;timestamp;pressure;altitude;pressure_sealevel;temperature;humidity
12178;BME280;6152;48.728;9.256;2022-12-05T00:00:52;96868.94;;;1.64;100.00
12178;BME280;6152;48.728;9.256;2022-12-05T00:03:19;96868.09;;;1.64;100.00
12178;BME280;6152;48.728;9.256;2022-12-05T00:05:45;96861.13;;;1.69;100.00
12178;BME280;6152;48.728;9.256;2022-12-05T00:08:11;96871.38;;;1.69;100.00
12178;BME280;6152;48.728;9.256;2022-12-05T00:10:38;96880.78;;;1.68;100.00
12178;BME280;6152;48.728;9.256;2022-12-05T00:13:05;96880.22;;;1.59;100.00
12178;BME280;6152;48.728;9.256;2022-12-05T00:15:35;96879.38;;;1.58;100.00
12178;BME280;6152;48.728;9.256;2022-12-05T00:18:01;96872.69;;;1.52;100.00
12178;BME280;6152;48.728;9.256;2022-12-05T00:20:27;96885.16;;;1.65;100.00
12178;BME280;6152;48.728;9.256;2022-12-05T00:22:53;96873.03;;;1.70;100.00
12178;BME280;6152;48.728;9.256;2022-12-05T00:25:19;96879.75;;;1.74;100.00
12178;BME280;6152;48.728;9.256;2022-12-05T00:27:45;96873.13;;;1.67;100.00
12178;BME280;6152;48.728;9.256;2022-12-05T00:30:11;96873.13;;;1.67;100.00
12178;BME280;6152;48.728;9.256;2022-12-05T00:32:38;96862.84;;;1.68;100.00
12178;BME280;6152;48.728;9.256;2022-12-05T00:35:04;96864.84;;;1.59;100.00
12178;BME280;6152;48.728;9.256;2022-12-05T00:37:30;96876.66;;;1.63;100.00
12178;BME280;6152;48.728;9.256;2022-12-05T00:39:56;96881.03;;;1.59;100.00
12178;BME280;6152;48.728;9.256;2022-12-05T00:42:22;96875.91;;;1.59;100.00
12178;BME280;6152;48.728;9.256;2022-12-05T00:44:49;96883.00;;;1.51;100.00
12178;BME280;6152;48.728;9.256;2022-12-05T00:47:15;96883.91;;;1.48;100.00
12178;BME280;6152;48.728;9.256;2022-12-05T00:49:41;96885.69;;;1.46;100.00
12178;BME280;6152;48.728;9.256;2022-12-05T00:52:08;96884.66;;;1.52;100.00
12178;BME280;6152;48.728;9.256;2022-12-05T00:54:34;96875.34;;;1.49;100.00
12178;BME280;6152;48.728;9.256;2022-12-05T00:57:00;96883.91;;;1.48;100.00
12178;BME280;6152;48.728;9.256;2022-12-05T00:59:27;96889.03;;;1.48;100.00
12178;BME280;6152;48.728;9.256;2022-12-05T01:01:53;96894.31;;;1.44;100.00
12178;BME280;6152;48.728;9.256;2022-12-05T01:04:21;96897.72;;;1.44;100.00
12178;BME280;6152;48.728;9.256;2022-12-05T01:06:48;96910.47;;;1.46;100.00
12178;BME280;6152;48.728;9.256;2022-12-05T01:09:17;96925.00;;;1.45;100.00
12178;BME280;6152;48.728;9.256;2022-12-05T01:11:44;96925.94;;;1.43;100.00
12178;BME280;6152;48.728;9.256;2022-12-05T01:14:12;96931.75;;;1.49;100.00
12178;BME280;6152;48.728;9.256;2022-12-05T01:16:42;96934.44;;;1.45;100.00
12178;BME280;6152;48.728;9.256;2022-12-05T01:19:12;96933.66;;;1.41;100.00
12178;BME280;6152;48.728;9.256;2022-12-05T01:21:38;96928.53;;;1.41;100.00
12178;BME280;6152;48.728;9.256;2022-12-05T01:24:05;96931.91;;;1.43;100.00
12178;BME280;6152;48.728;9.256;2022-12-05T01:26:31;96938.69;;;1.46;100.00
12178;BME280;6152;48.728;9.256;2022-12-05T01:28:57;96938.66;;;1.47;100.00
12178;BME280;6152;48.728;9.256;2022-12-05T01:31:26;96946.38;;;1.46;100.00
12178;BME280;6152;48.728;9.256;2022-12-05T01:33:54;96940.41;;;1.45;100.00
12178;BME280;6152;48.728;9.256;2022-12-05T01:36:21;96931.72;;;1.51;100.00
12178;BME280;6152;48.728;9.256;2022-12-05T01:38:48;96935.91;;;1.53;100.00
12178;BME280;6152;48.728;9.256;2022-12-05T01:41:26;96939.41;;;1.51;100.00
12178;BME280;6152;48.728;9.256;2022-12-05T01:43:57;96941.91;;;1.52;100.00
12178;BME280;6152;48.728;9.256;2022-12-05T01:46:24;96941.91;;;1.52;100.00
12178;BME280;6152;48.728;9.256;2022-12-05T01:48:54;96943.59;;;1.53;100.00
12178;BME280;6152;48.728;9.256;2022-12-05T01:51:23;96945.22;;;1.56;100.00
12178;BME280;6152;48.728;9.256;2022-12-05T01:53:49;96944.34;;;1.57;100.00
12178;BME280;6152;48.728;9.256;2022-12-05T01:56:16;96945.28;;;1.55;100.00
12178;BME280;6152;48.728;9.256;2022-12-05T01:58:43;96941.81;;;1.56;100.00
12178;BME280;6152;48.728;9.256;2022-12-05T02:01:12;96941.91;;;1.52;100.00
12178;BME280;6152;48.728;9.256;2022-12-05T02:03:41;96936.13;;;1.46;100.00
12178;BME280;6152;48.728;9.256;2022-12-05T02:06:08;96941.31;;;1.44;100.00
12178;BME280;6152;48.728;9.256;2022-12-05T02:08:37;96934.50;;;1.42;100.00
12178;BME280;6152;48.728;9.256;2022-12-05T02:11:06;96947.41;;;1.40;100.00
12178;BME280;6152;48.728;9.256;2022-12-05T02:16:31;96956.91;;;1.35;100.00
12178;BME280;6152;48.728;9.256;2022-12-05T02:25:26;96968.94;;;1.33;100.00
12178;BME280;6152;48.728;9.256;2022-12-05T02:27:46;96977.47;;;1.34;100.00
12178;BME280;6152;48.728;9.256;2022-12-05T02:30:19;96978.38;;;1.31;100.00
12178;BME280;6152;48.728;9.256;2022-12-05T02:33:18;96998.84;;;1.34;100.00
12178;BME280;6152;48.728;9.256;2022-12-05T02:39:17;96984.16;;;1.39;100.00
12178;BME280;6152;48.728;9.256;2022-12-05T02:46:58;97001.94;;;1.45;100.00
12178;BME280;6152;48.728;9.256;2022-12-05T02:49:30;96995.06;;;1.47;100.00
12178;BME280;6152;48.728;9.256;2022-12-05T02:51:59;96996.81;;;1.45;100.00
12178;BME280;6152;48.728;9.256;2022-12-05T02:54:30;97005.41;;;1.44;100.00
12178;BME280;6152;48.728;9.256;2022-12-05T02:56:59;97005.44;;;1.41;100.00
12178;BME280;6152;48.728;9.256;2022-12-05T02:59:26;96991.69;;;1.45;100.00
12178;BME280;6152;48.728;9.256;2022-12-05T03:01:52;96984.81;;;1.47;100.00
12178;BME280;6152;48.728;9.256;2022-12-05T03:04:21;96986.47;;;1.48;100.00
12178;BME280;6152;48.728;9.256;2022-12-05T03:06:57;96993.28;;;1.49;100.00
12178;BME280;6152;48.728;9.256;2022-12-05T03:12:06;96984.63;;;1.53;100.00
12178;BME280;6152;48.728;9.256;2022-12-05T03:14:39;96978.53;;;1.58;100.00
12178;BME280;6152;48.728;9.256;2022-12-05T03:17:10;96984.50;;;1.58;100.00
12178;BME280;6152;48.728;9.256;2022-12-05T03:25:02;96996.13;;;1.70;100.00
12178;BME280;6152;48.728;9.256;2022-12-05T03:30:30;96979.00;;;1.72;100.00
12178;BME280;6152;48.728;9.256;2022-12-05T03:35:57;96962.59;;;1.77;100.00
12178;BME280;6152;48.728;9.256;2022-12-05T03:39:02;96968.47;;;1.81;100.00
12178;BME280;6152;48.728;9.256;2022-12-05T03:41:37;96977.78;;;1.83;100.00
12178;BME280;6152;48.728;9.256;2022-12-05T03:44:18;96976.88;;;1.86;100.00
12178;BME280;6152;48.728;9.256;2022-12-05T03:46:55;96985.50;;;1.83;100.00
12178;BME280;6152;48.728;9.256;2022-12-05T03:49:29;96979.50;;;1.83;100.00
12178;BME280;6152;48.728;9.256;2022-12-05T03:51:58;96985.47;;;1.85;100.00
12178;BME280;6152;48.728;9.256;2022-12-05T03:54:34;96988.81;;;1.87;100.00
12178;BME280;6152;48.728;9.256;2022-12-05T03:59:43;96985.28;;;1.91;100.00
12178;BME280;6152;48.728;9.256;2022-12-05T04:02:20;96979.28;;;1.92;100.00
12178;BME280;6152;48.728;9.256;2022-12-05T04:05:38;96976.66;;;1.93;100.00
12178;BME280;6152;48.728;9.256;2022-12-05T04:07:49;96976.78;;;1.89;100.00
12178;BME280;6152;48.728;9.256;2022-12-05T04:10:25;96968.28;;;1.87;100.00
12178;BME280;6152;48.728;9.256;2022-12-05T04:12:55;96971.75;;;1.86;100.00
12178;BME280;6152;48.728;9.256;2022-12-05T04:15:27;96959.91;;;1.82;100.00
12178;BME280;6152;48.728;9.256;2022-12-05T04:18:19;96962.56;;;1.79;100.00
12178;BME280;6152;48.728;9.256;2022-12-05T04:20:49;96968.56;;;1.78;100.00
12178;BME280;6152;48.728;9.256;2022-12-05T04:23:35;96975.47;;;1.76;100.00
12178;BME280;6152;48.728;9.256;2022-12-05T04:26:15;96977.19;;;1.75;100.00
12178;BME280;6152;48.728;9.256;2022-12-05T04:29:11;96994.31;;;1.75;100.00
12178;BME280;6152;48.728;9.256;2022-12-05T04:31:42;96999.53;;;1.72;100.00
12178;BME280;6152;48.728;9.256;2022-12-05T04:34:12;96995.25;;;1.71;100.00
12178;BME280;6152;48.728;9.256;2022-12-05T04:37:01;96997.91;;;1.68;100.00
12178;BME280;6152;48.728;9.256;2022-12-05T04:39:47;96994.63;;;1.63;100.00
12178;BME280;6152;48.728;9.256;2022-12-05T04:42:18;97002.31;;;1.63;100.00
12178;BME280;6152;48.728;9.256;2022-12-05T04:45:00;97010.00;;;1.63;100.00
12178;BME280;6152;48.728;9.256;2022-12-05T04:47:33;97004.94;;;1.61;100.00
12178;BME280;6152;48.728;9.256;2022-12-05T04:50:02;97007.63;;;1.57;100.00
12178;BME280;6152;48.728;9.256;2022-12-05T04:52:29;97011.97;;;1.55;100.00
12178;BME280;6152;48.728;9.256;2022-12-05T04:55:09;97013.78;;;1.49;100.00
12178;BME280;6152;48.728;9.256;2022-12-05T05:00:26;97015.66;;;1.44;100.00
12178;BME280;6152;48.728;9.256;2022-12-05T05:03:04;97013.22;;;1.38;100.00
12178;BME280;6152;48.728;9.256;2022-12-05T05:05:33;97012.47;;;1.35;100.00
12178;BME280;6152;48.728;9.256;2022-12-05T05:08:00;97022.00;;;1.30;100.00
12178;BME280;6152;48.728;9.256;2022-12-05T05:10:40;97024.59;;;1.28;100.00
12178;BME280;6152;48.728;9.256;2022-12-05T05:13:09;97028.88;;;1.28;100.00
12178;BME280;6152;48.728;9.256;2022-12-05T05:15:35;97024.59;;;1.28;100.00
12178;BME280;6152;48.728;9.256;2022-12-05T05:18:01;97033.97;;;1.29;100.00
12178;BME280;6152;48.728;9.256;2022-12-05T05:20:27;97034.75;;;1.31;100.00
12178;BME280;6152;48.728;9.256;2022-12-05T05:22:57;97031.34;;;1.32;100.00
12178;BME280;6152;48.728;9.256;2022-12-05T05:25:24;97040.66;;;1.35;100.00
12178;BME280;6152;48.728;9.256;2022-12-05T05:27:52;97038.00;;;1.39;100.00
12178;BME280;6152;48.728;9.256;2022-12-05T05:30:20;97042.06;;;1.46;100.00
12178;BME280;6152;48.728;9.256;2022-12-05T05:32:46;97039.34;;;1.52;100.00
12178;BME280;6152;48.728;9.256;2022-12-05T05:35:13;97049.47;;;1.59;100.00
12178;BME280;6152;48.728;9.256;2022-12-05T05:37:40;97051.88;;;1.65;100.00
12178;BME280;6152;48.728;9.256;2022-12-05T05:40:08;97053.47;;;1.69;100.00
12178;BME280;6152;48.728;9.256;2022-12-05T05:42:35;97055.19;;;1.68;100.00
12178;BME280;6152;48.728;9.256;2022-12-05T05:45:01;97057.59;;;1.73;100.00
12178;BME280;6152;48.728;9.256;2022-12-05T05:47:27;97060.91;;;1.78;100.00
12178;BME280;6152;48.728;9.256;2022-12-05T05:49:53;97046.31;;;1.80;100.00
12178;BME280;6152;48.728;9.256;2022-12-05T05:52:19;97045.44;;;1.81;100.00
12178;BME280;6152;48.728;9.256;2022-12-05T05:54:45;97045.34;;;1.84;100.00
12178;BME280;6152;48.728;9.256;2022-12-05T05:57:12;97049.50;;;1.88;100.00
12178;BME280;6152;48.728;9.256;2022-12-05T05:59:38;97052.00;;;1.91;100.00
12178;BME280;6152;48.728;9.256;2022-12-05T06:02:04;97054.63;;;1.88;100.00
12178;BME280;6152;48.728;9.256;2022-12-05T06:04:30;97053.84;;;1.86;100.00
12178;BME280;6152;48.728;9.256;2022-12-05T06:06:56;97054.84;;;1.80;100.00
12178;BME280;6152;48.728;9.256;2022-12-05T06:09:22;97056.66;;;1.77;100.00
12178;BME280;6152;48.728;9.256;2022-12-05T06:11:48;97058.44;;;1.75;100.00
12178;BME280;6152;48.728;9.256;2022-12-05T06:14:14;97052.34;;;1.79;100.00
12178;BME280;6152;48.728;9.256;2022-12-05T06:16:40;97055.78;;;1.78;100.00
12178;BME280;6152;48.728;9.256;2022-12-05T06:19:06;97055.84;;;1.75;100.00
12178;BME280;6152;48.728;9.256;2022-12-05T06:21:32;97060.16;;;1.74;100.00
12178;BME280;6152;48.728;9.256;2022-12-05T06:23:59;97060.06;;;1.77;100.00
12178;BME280;6152;48.728;9.256;2022-12-05T06:26:25;97073.72;;;1.78;100.00
12178;BME280;6152;48.728;9.256;2022-12-05T06:28:51;97080.50;;;1.80;100.00
12178;BME280;6152;48.728;9.256;2022-12-05T06:31:21;97092.38;;;1.84;100.00
12178;BME280;6152;48.728;9.256;2022-12-05T06:33:48;97106.75;;;1.90;100.00
12178;BME280;6152;48.728;9.256;2022-12-05T06:36:17;97096.41;;;1.93;100.00
12178;BME280;6152;48.728;9.256;2022-12-05T06:38:43;97099.84;;;1.92;100.00
12178;BME280;6152;48.728;9.256;2022-12-05T06:41:18;97103.31;;;1.91;100.00
12178;BME280;6152;48.728;9.256;2022-12-05T06:43:45;97101.47;;;1.96;100.00
12178;BME280;6152;48.728;9.256;2022-12-05T06:46:12;97097.22;;;1.95;100.00
12178;BME280;6152;48.728;9.256;2022-12-05T06:48:39;97103.13;;;1.97;100.00
12178;BME280;6152;48.728;9.256;2022-12-05T06:51:12;97102.44;;;1.92;100.00
12178;BME280;6152;48.728;9.256;2022-12-05T06:53:39;97091.31;;;1.91;100.00
12178;BME280;6152;48.728;9.256;2022-12-05T06:56:07;97094.81;;;1.89;100.00
12178;BME280;6152;48.728;9.256;2022-12-05T06:58:36;97090.56;;;1.88;100.00
12178;BME280;6152;48.728;9.256;2022-12-05T07:01:02;97095.66;;;1.89;100.00
12178;BME280;6152;48.728;9.256;2022-12-05T07:03:50;97095.78;;;1.85;100.00
12178;BME280;6152;48.728;9.256;2022-12-05T07:06:17;97101.69;;;1.87;100.00
12178;BME280;6152;48.728;9.256;2022-12-05T07:08:43;97116.28;;;1.85;100.00
12178;BME280;6152;48.728;9.256;2022-12-05T07:11:10;97121.44;;;1.85;100.00
12178;BME280;6152;48.728;9.256;2022-12-05T07:13:36;97130.66;;;1.92;100.00
12178;BME280;6152;48.728;9.256;2022-12-05T07:16:02;97144.03;;;2.03;100.00
12178;BME280;6152;48.728;9.256;2022-12-05T07:18:32;97136.22;;;2.08;100.00
12178;BME280;6152;48.728;9.256;2022-12-05T07:21:00;97140.34;;;2.13;100.00
12178;BME280;6152;48.728;9.256;2022-12-05T07:23:27;97134.09;;;2.22;100.00
12178;BME280;6152;48.728;9.256;2022-12-05T07:25:53;97148.56;;;2.24;100.00
12178;BME280;6152;48.728;9.256;2022-12-05T07:28:19;97144.97;;;2.31;100.00
12178;BME280;6152;48.728;9.256;2022-12-05T07:30:46;97145.56;;;2.41;100.00
12178;BME280;6152;48.728;9.256;2022-12-05T07:33:12;97149.78;;;2.43;100.00
12178;BME280;6152;48.728;9.256;2022-12-05T07:35:38;97142.94;;;2.42;100.00
12178;BME280;6152;48.728;9.256;2022-12-05T07:38:04;97148.06;;;2.44;100.00
12178;BME280;6152;48.728;9.256;2022-12-05T07:40:30;97148.00;;;2.45;100.00
12178;BME280;6152;48.728;9.256;2022-12-05T07:42:56;97146.03;;;2.55;100.00
12178;BME280;6152;48.728;9.256;2022-12-05T07:45:22;97150.81;;;2.66;100.00
12178;BME280;6152;48.728;9.256;2022-12-05T07:47:48;97151.44;;;2.75;100.00
12178;BME280;6152;48.728;9.256;2022-12-05T07:50:15;97143.31;;;2.89;100.00
12178;BME280;6152;48.728;9.256;2022-12-05T07:52:41;97147.09;;;3.05;100.00
12178;BME280;6152;48.728;9.256;2022-12-05T07:55:07;97151.06;;;3.15;100.00
12178;BME280;6152;48.728;9.256;2022-12-05T07:57:33;97154.16;;;3.26;100.00
12178;BME280;6152;48.728;9.256;2022-12-05T07:59:59;97158.78;;;3.41;100.00
12178;BME280;6152;48.728;9.256;2022-12-05T08:02:26;97157.63;;;3.51;100.00
12178;BME280;6152;48.728;9.256;2022-12-05T08:04:52;97156.81;;;3.49;100.00
12178;BME280;6152;48.728;9.256;2022-12-05T08:07:18;97160.84;;;3.58;100.00
12178;BME280;6152;48.728;9.256;2022-12-05T08:09:44;97163.56;;;3.53;100.00
12178;BME280;6152;48.728;9.256;2022-12-05T08:12:10;97166.03;;;3.56;100.00
12178;BME280;6152;48.728;9.256;2022-12-05T08:14:36;97167.63;;;3.61;100.00
12178;BME280;6152;48.728;9.256;2022-12-05T08:17:02;97174.34;;;3.65;100.00
12178;BME280;6152;48.728;9.256;2022-12-05T08:19:29;97178.16;;;3.53;100.00
12178;BME280;6152;48.728;9.256;2022-12-05T08:21:55;97178.25;;;3.50;100.00
12178;BME280;6152;48.728;9.256;2022-12-05T08:24:21;97173.97;;;3.50;100.00
12178;BME280;6152;48.728;9.256;2022-12-05T08:26:50;97180.59;;;3.58;100.00
12178;BME280;6152;48.728;9.256;2022-12-05T08:29:20;97185.75;;;3.58;100.00
12178;BME280;6152;48.728;9.256;2022-12-05T08:31:48;97186.69;;;3.55;100.00
12178;BME280;6152;48.728;9.256;2022-12-05T08:34:16;97184.03;;;3.56;100.00
12178;BME280;6152;48.728;9.256;2022-12-05T08:36:43;97190.91;;;3.56;100.00
12178;BME280;6152;48.728;9.256;2022-12-05T08:39:12;97196.03;;;3.58;100.00
12178;BME280;6152;48.728;9.256;2022-12-05T08:41:43;97196.66;;;3.64;100.00
12178;BME280;6152;48.728;9.256;2022-12-05T08:44:10;97197.63;;;3.62;100.00
12178;BME280;6152;48.728;9.256;2022-12-05T08:46:41;97200.97;;;3.64;100.00
12178;BME280;6152;48.728;9.256;2022-12-05T08:49:08;97197.31;;;3.71;100.00
12178;BME280;6152;48.728;9.256;2022-12-05T08:51:35;97194.50;;;3.78;100.00
12178;BME280;6152;48.728;9.256;2022-12-05T08:54:02;97192.78;;;3.79;100.00
12178;BME280;6152;48.728;9.256;2022-12-05T08:56:29;97197.00;;;3.80;100.00
12178;BME280;6152;48.728;9.256;2022-12-05T08:58:56;97198.56;;;3.85;100.00
12178;BME280;6152;48.728;9.256;2022-12-05T09:01:22;97194.41;;;3.81;100.00
12178;BME280;6152;48.728;9.256;2022-12-05T09:03:50;97204.25;;;3.95;100.00
12178;BME280;6152;48.728;9.256;2022-12-05T09:06:21;97207.56;;;3.98;100.00
12178;BME280;6152;48.728;9.256;2022-12-05T09:08:52;97211.75;;;4.01;100.00
12178;BME280;6152;48.728;9.256;2022-12-05T09:11:21;97216.63;;;4.10;100.00
12178;BME280;6152;48.728;9.256;2022-12-05T09:13:49;97218.28;;;4.11;100.00
12178;BME280;6152;48.728;9.256;2022-12-05T09:16:24;97221.66;;;4.13;100.00
12178;BME280;6152;48.728;9.256;2022-12-05T09:18:51;97224.91;;;4.18;100.00
12178;BME280;6152;48.728;9.256;2022-12-05T09:21:20;97224.28;;;4.36;100.00
12178;BME280;6152;48.728;9.256;2022-12-05T09:23:47;97229.44;;;4.36;100.00
12178;BME280;6152;48.728;9.256;2022-12-05T09:26:16;97230.28;;;4.37;100.00
12178;BME280;6152;48.728;9.256;2022-12-05T09:28:43;97224.91;;;4.43;100.00
12178;BME280;6152;48.728;9.256;2022-12-05T09:31:17;97238.31;;;4.52;100.00
12178;BME280;6152;48.728;9.256;2022-12-05T09:33:44;97234.00;;;4.53;100.00
12178;BME280;6152;48.728;9.256;2022-12-05T09:36:16;97246.03;;;4.52;100.00
12178;BME280;6152;48.728;9.256;2022-12-05T09:38:42;97247.97;;;4.47;100.00
12178;BME280;6152;48.728;9.256;2022-12-05T09:43:57;97249.44;;;4.54;100.00
12178;BME280;6152;48.728;9.256;2022-12-05T09:48:51;97260.03;;;4.45;100.00
12178;BME280;6152;48.728;9.256;2022-12-05T09:51:17;97251.53;;;4.43;100.00
12178;BME280;6152;48.728;9.256;2022-12-05T09:53:44;97253.22;;;4.44;100.00
12178;BME280;6152;48.728;9.256;2022-12-05T09:56:24;97255.84;;;4.43;100.00
12178;BME280;6152;48.728;9.256;2022-12-05T09:58:53;97252.94;;;4.52;100.00
12178;BME280;6152;48.728;9.256;2022-12-05T10:01:40;97252.66;;;4.59;100.00
12178;BME280;6152;48.728;9.256;2022-12-05T10:12:19;97255.09;;;4.64;100.00
12178;BME280;6152;48.728;9.256;2022-12-05T10:18:44;97256.06;;;4.62;100.00
12178;BME280;6152;48.728;9.256;2022-12-05T10:21:15;97246.03;;;4.77;100.00
12178;BME280;6152;48.728;9.256;2022-12-05T10:24:09;97245.31;;;4.74;100.00
12178;BME280;6152;48.728;9.256;2022-12-05T10:26:44;97239.50;;;4.92;100.00
12178;BME280;6152;48.728;9.256;2022-12-05T10:31:44;97232.53;;;5.17;100.00
12178;BME280;6152;48.728;9.256;2022-12-05T10:36:59;97232.22;;;5.48;100.00
12178;BME280;6152;48.728;9.256;2022-12-05T10:39:27;97233.47;;;5.59;100.00
12178;BME280;6152;48.728;9.256;2022-12-05T10:41:53;97228.31;;;5.59;100.00
12178;BME280;6152;48.728;9.256;2022-12-05T10:44:21;97225.91;;;5.77;100.00
12178;BME280;6152;48.728;9.256;2022-12-05T10:46:48;97228.19;;;5.84;100.00
12178;BME280;6152;48.728;9.256;2022-12-05T10:49:14;97232.69;;;6.01;100.00
12178;BME280;6152;48.728;9.256;2022-12-05T10:51:40;97244.06;;;5.97;100.00
12178;BME280;6152;48.728;9.256;2022-12-05T10:54:28;97229.41;;;5.76;100.00
12178;BME280;6152;48.728;9.256;2022-12-05T10:56:55;97235.94;;;5.84;100.00
12178;BME280;6152;48.728;9.256;2022-12-05T10:59:24;97238.50;;;5.86;100.00
12178;BME280;6152;48.728;9.256;2022-12-05T11:01:56;97233.13;;;5.90;100.00
12178;BME280;6152;48.728;9.256;2022-12-05T11:04:24;97223.09;;;6.04;100.00
12178;BME280;6152;48.728;9.256;2022-12-05T11:07:03;97222.25;;;6.24;100.00
12178;BME280;6152;48.728;9.256;2022-12-05T11:09:32;97227.69;;;6.38;100.00
12178;BME280;6152;48.728;9.256;2022-12-05T11:14:28;97220.47;;;6.46;100.00
12178;BME280;6152;48.728;9.256;2022-12-05T11:17:01;97219.28;;;6.53;100.00
12178;BME280;6152;48.728;9.256;2022-12-05T11:19:35;97213.34;;;6.72;100.00
12178;BME280;6152;48.728;9.256;2022-12-05T11:22:02;97209.03;;;6.91;100.00
12178;BME280;6152;48.728;9.256;2022-12-05T11:24:32;97220.78;;;6.98;100.00
12178;BME280;6152;48.728;9.256;2022-12-05T11:27:18;97227.66;;;7.36;100.00
12178;BME280;6152;48.728;9.256;2022-12-05T11:29:59;97224.53;;;7.66;100.00
12178;BME280;6152;48.728;9.256;2022-12-05T11:32:28;97224.47;;;8.20;100.00
12178;BME280;6152;48.728;9.256;2022-12-05T11:37:43;97214.03;;;9.06;100.00
12178;BME280;6152;48.728;9.256;2022-12-05T11:52:03;97196.78;;;10.43;100.00
12178;BME280;6152;48.728;9.256;2022-12-05T12:05:55;97200.31;;;9.35;100.00
12178;BME280;6152;48.728;9.256;2022-12-05T12:08:29;97201.44;;;9.14;100.00
12178;BME280;6152;48.728;9.256;2022-12-05T12:20:17;97197.19;;;8.13;100.00
12178;BME280;6152;48.728;9.256;2022-12-05T12:23:29;97199.28;;;7.88;100.00
12178;BME280;6152;48.728;9.256;2022-12-05T12:26:15;97199.75;;;7.79;100.00
12178;BME280;6152;48.728;9.256;2022-12-05T12:36:47;97202.81;;;7.51;100.00
12178;BME280;6152;48.728;9.256;2022-12-05T12:42:24;97197.97;;;7.43;100.00
12178;BME280;6152;48.728;9.256;2022-12-05T12:50:29;97194.97;;;7.15;100.00
12178;BME280;6152;48.728;9.256;2022-12-05T13:02:00;97189.72;;;6.98;100.00
12178;BME280;6152;48.728;9.256;2022-12-05T13:04:33;97194.06;;;6.79;100.00
12178;BME280;6152;48.728;9.256;2022-12-05T13:07:12;97189.97;;;6.73;100.00
12178;BME280;6152;48.728;9.256;2022-12-05T13:09:49;97189.13;;;6.73;100.00
12178;BME280;6152;48.728;9.256;2022-12-05T13:12:20;97188.56;;;6.66;100.00
12178;BME280;6152;48.728;9.256;2022-12-05T13:14:52;97189.81;;;6.57;100.00
12178;BME280;6152;48.728;9.256;2022-12-05T13:17:20;97184.94;;;6.51;100.00
12178;BME280;6152;48.728;9.256;2022-12-05T13:19:50;97187.13;;;6.40;100.00
12178;BME280;6152;48.728;9.256;2022-12-05T13:22:18;97185.31;;;6.42;100.00
12178;BME280;6152;48.728;9.256;2022-12-05T13:24:45;97181.13;;;6.40;100.00
12178;BME280;6152;48.728;9.256;2022-12-05T13:27:27;97180.25;;;6.39;100.00
12178;BME280;6152;48.728;9.256;2022-12-05T13:30:01;97174.34;;;6.37;100.00
12178;BME280;6152;48.728;9.256;2022-12-05T13:32:36;97180.72;;;6.49;100.00
12178;BME280;6152;48.728;9.256;2022-12-05T13:37:33;97175.22;;;6.56;100.00
12178;BME280;6152;48.728;9.256;2022-12-05T13:40:28;97181.09;;;6.60;100.00
12178;BME280;6152;48.728;9.256;2022-12-05T13:43:16;97193.44;;;6.53;100.00
12178;BME280;6152;48.728;9.256;2022-12-05T13:46:07;97186.25;;;6.60;100.00
12178;BME280;6152;48.728;9.256;2022-12-05T13:48:37;97187.72;;;6.66;100.00
12178;BME280;6152;48.728;9.256;2022-12-05T13:51:26;97192.38;;;6.78;100.00
12178;BME280;6152;48.728;9.256;2022-12-05T13:54:20;97191.81;;;6.90;100.00
12178;BME280;6152;48.728;9.256;2022-12-05T13:56:49;97198.88;;;7.05;100.00
12178;BME280;6152;48.728;9.256;2022-12-05T14:07:53;97201.63;;;7.02;100.00
12178;BME280;6152;48.728;9.256;2022-12-05T14:12:59;97215.66;;;6.96;100.00
12178;BME280;6152;48.728;9.256;2022-12-05T14:15:35;97219.94;;;6.97;100.00
12178;BME280;6152;48.728;9.256;2022-12-05T14:18:13;97223.56;;;6.93;100.00
12178;BME280;6152;48.728;9.256;2022-12-05T14:20:47;97223.78;;;7.07;100.00
12178;BME280;6152;48.728;9.256;2022-12-05T14:26:13;97211.63;;;7.09;100.00
12178;BME280;6152;48.728;9.256;2022-12-05T14:40:15;97218.00;;;6.43;100.00
12178;BME280;6152;48.728;9.256;2022-12-05T14:42:58;97224.66;;;6.29;100.00
12178;BME280;6152;48.728;9.256;2022-12-05T14:45:36;97228.41;;;6.22;100.00
12178;BME280;6152;48.728;9.256;2022-12-05T14:48:25;97227.03;;;6.13;100.00
12178;BME280;6152;48.728;9.256;2022-12-05T14:50:54;97229.09;;;6.05;100.00
12178;BME280;6152;48.728;9.256;2022-12-05T14:55:56;97222.75;;;5.92;100.00
12178;BME280;6152;48.728;9.256;2022-12-05T14:58:49;97221.97;;;5.90;100.00
12178;BME280;6152;48.728;9.256;2022-12-05T15:01:21;97217.97;;;5.81;100.00
12178;BME280;6152;48.728;9.256;2022-12-05T15:07:11;97221.25;;;5.65;100.00
12178;BME280;6152;48.728;9.256;2022-12-05T15:09:58;97219.81;;;5.57;100.00
12178;BME280;6152;48.728;9.256;2022-12-05T15:12:46;97219.81;;;5.57;100.00
12178;BME280;6152;48.728;9.256;2022-12-05T15:18:02;97222.00;;;5.45;100.00
12178;BME280;6152;48.728;9.256;2022-12-05T15:20:48;97217.16;;;5.37;100.00
12178;BME280;6152;48.728;9.256;2022-12-05T15:23:37;97229.38;;;5.32;100.00
12178;BME280;6152;48.728;9.256;2022-12-05T15:29:12;97222.31;;;5.14;100.00
12178;BME280;6152;48.728;9.256;2022-12-05T15:31:46;97223.56;;;5.04;100.00
12178;BME280;6152;48.728;9.256;2022-12-05T15:36:55;97222.69;;;4.82;100.00
12178;BME280;6152;48.728;9.256;2022-12-05T15:39:24;97225.47;;;4.76;100.00
12178;BME280;6152;48.728;9.256;2022-12-05T15:41:52;97235.09;;;4.71;100.00
12178;BME280;6152;48.728;9.256;2022-12-05T15:44:19;97243.91;;;4.65;100.00
12178;BME280;6152;48.728;9.256;2022-12-05T15:46:54;97246.88;;;4.53;100.00
12178;BME280;6152;48.728;9.256;2022-12-05T15:49:25;97244.69;;;4.42;100.00
12178;BME280;6152;48.728;9.256;2022-12-05T15:52:00;97251.75;;;4.37;100.00
12178;BME280;6152;48.728;9.256;2022-12-05T15:54:33;97257.19;;;4.28;100.00
12178;BME280;6152;48.728;9.256;2022-12-05T15:57:07;97266.19;;;4.17;100.00
12178;BME280;6152;48.728;9.256;2022-12-05T15:59:48;97260.44;;;4.08;100.00
12178;BME280;6152;48.728;9.256;2022-12-05T16:02:51;97264.28;;;3.95;100.00
12178;BME280;6152;48.728;9.256;2022-12-05T16:05:43;97266.91;;;3.94;100.00
12178;BME280;6152;48.728;9.256;2022-12-05T16:08:12;97272.28;;;3.86;100.00
12178;BME280;6152;48.728;9.256;2022-12-05T16:10:38;97275.81;;;3.84;100.00
12178;BME280;6152;48.728;9.256;2022-12-05T16:13:10;97263.03;;;3.81;100.00
12178;BME280;6152;48.728;9.256;2022-12-05T16:15:46;97264.03;;;3.77;100.00